Flight Track Log - Related Links

Times and Time Zones

All times are in EDT time to prevent confusion due to time zone crossing. See the N777NC flight status page for this flight to view local times or setup timezone preferences in your user account.

Time Position Orientation Groundspeed Altitude Reporting Facility
EDT Latitude Longitude Course Direction KTS MPH feet Rate Location/Type
Fri 06:03:37 PM 33.6167 -84.5167 85° East 237 273 3,500  Level Atlanta TRACON
Fri 06:04:37 PM 33.5667 -84.5667 220° Southwest 263 303 5,900 2,300 Climbing Atlanta TRACON
Fri 06:05:37 PM 33.4833 -84.5667 180° South 303 349 8,100 2,156 Climbing Atlanta TRACON
Fri 06:06:00 PM 33.6183 -83.9087 92° East  Level FlightAware Approximate
Fri 06:06:45 PM 33.4450 -84.4769 117° Southeast 285 328 10,500  Level Atlanta Center
Fri 06:07:00 PM 33.6345 -83.7803 90° East  Level Estimated
Fri 06:07:45 PM 33.4431 -84.3550 91° East 329 379 11,400  Level Atlanta Center
Fri 06:08:00 PM 33.6505 -83.6518 85° East  Level Estimated
Fri 06:08:45 PM 33.4581 -84.2256 82° East 379 436 13,600  Level Atlanta Center
Fri 06:09:45 PM 33.4664 -84.1111 85° East 394 453 15,600 1,900 Climbing Atlanta Center
Fri 06:10:45 PM 33.4686 -83.9767 89° East 394 453 17,400 1,800 Climbing Atlanta Center
Fri 06:11:45 PM 33.4747 -83.8419 87° East 394 453 19,200 1,550 Climbing Atlanta Center
Fri 06:12:45 PM 33.4869 -83.7125 84° East 394 453 20,500 1,150 Climbing Atlanta Center
Fri 06:13:45 PM 33.5117 -83.5778 78° East 405 466 21,500 750 Climbing Atlanta Center
Fri 06:14:45 PM 33.5822 -83.4678 52° Northeast 410 472 22,000 250 Climbing Atlanta Center
Fri 06:15:45 PM 33.6483 -83.3525 55° Northeast 416 479 22,000  Level Atlanta Center
Fri 06:16:45 PM 33.6872 -83.2300 69° East 387 445 22,000  Level Atlanta Center
Fri 06:17:45 PM 33.7050 -83.0900 81° East 411 473 22,000 250 Level Atlanta Center
Fri 06:18:45 PM 33.7225 -82.9325 82° East 422 486 22,500 500 Climbing Atlanta Center
Fri 06:19:45 PM 33.7397 -82.7847 82° East 435 501 23,000 250 Climbing Atlanta Center
Fri 06:20:45 PM 33.7569 -82.6297 82° East 452 520 23,000 -250 Level Atlanta Center
Fri 06:21:45 PM 33.7528 -82.4697 92° East 464 534 22,500 -1,650 Descending Atlanta Center
Fri 06:22:45 PM 33.7425 -82.3125 94° East 464 534 19,700 -2,700 Descending Atlanta Center
Fri 06:23:45 PM 33.7531 -82.1800 84° East 453 521 17,100 -2,623 Descending Atlanta Center
Fri 06:25:16 PM 33.7808 -81.9731 81° East 431 496 13,100 -2,384 Descending Jacksonville Center
Fri 06:26:16 PM 33.7986 -81.8478 80° East 402 463 11,100 -1,000 Descending Jacksonville Center
Fri 06:27:16 PM 33.8164 -81.7278 80° East 376 433 11,100 -50 Level Jacksonville Center
Fri 06:28:16 PM 33.8300 -81.6150 82° East 353 406 11,000 -500 Descending Jacksonville Center
Fri 06:29:16 PM 33.8392 -81.5050 84° East 338 389 10,100 -1,300 Descending Jacksonville Center
Fri 06:30:16 PM 33.8464 -81.4072 85° East 316 364 8,400 -1,750 Descending Jacksonville Center
Fri 06:31:16 PM 33.8453 -81.3072 91° East 294 338 6,600 -1,550 Descending Jacksonville Center
Fri 06:32:16 PM 33.8461 -81.2097 89° East 287 330 5,300 -1,300 Descending Jacksonville Center
Fri 06:33:16 PM 33.8489 -81.1222 88° East 276 318 4,000 -1,300 Descending Jacksonville Center

Login

Don't have an account? Register now (free) for customized features, flight alerts, and more!